sensor_id;sensor_type;location;lat;lon;timestamp;pressure;altitude;pressure_sealevel;temperature;humidity
8699;BME280;4386;51.236;6.742;2023-01-26T00:00:47;102140.66;;;2.27;75.40
8699;BME280;4386;51.236;6.742;2023-01-26T00:01:48;102139.78;;;2.28;74.86
8699;BME280;4386;51.236;6.742;2023-01-26T00:02:53;102137.13;;;2.29;74.95
8699;BME280;4386;51.236;6.742;2023-01-26T00:04:14;102139.72;;;2.29;74.85
8699;BME280;4386;51.236;6.742;2023-01-26T00:05:37;102135.47;;;2.25;74.85
8699;BME280;4386;51.236;6.742;2023-01-26T00:06:59;102135.53;;;2.22;74.68
8699;BME280;4386;51.236;6.742;2023-01-26T00:08:21;102132.09;;;2.20;74.75
8699;BME280;4386;51.236;6.742;2023-01-26T00:09:43;102124.34;;;2.16;74.90
8699;BME280;4386;51.236;6.742;2023-01-26T00:11:07;102126.97;;;2.14;74.65
8699;BME280;4386;51.236;6.742;2023-01-26T00:12:29;102126.97;;;2.14;74.78
8699;BME280;4386;51.236;6.742;2023-01-26T00:13:54;102116.47;;;2.17;74.81
8699;BME280;4386;51.236;6.742;2023-01-26T00:15:17;102107.69;;;2.20;75.17
8699;BME280;4386;51.236;6.742;2023-01-26T00:16:38;102112.91;;;2.21;75.05
8699;BME280;4386;51.236;6.742;2023-01-26T00:18:02;102110.22;;;2.23;75.07
8699;BME280;4386;51.236;6.742;2023-01-26T00:19:24;102109.41;;;2.22;74.90
8699;BME280;4386;51.236;6.742;2023-01-26T00:20:46;102109.41;;;2.22;74.80
8699;BME280;4386;51.236;6.742;2023-01-26T00:22:11;102112.81;;;2.24;74.70
8699;BME280;4386;51.236;6.742;2023-01-26T00:23:35;102105.78;;;2.26;74.84
8699;BME280;4386;51.236;6.742;2023-01-26T00:24:57;102106.66;;;2.27;74.65
8699;BME280;4386;51.236;6.742;2023-01-26T00:26:21;102104.03;;;2.28;74.63
8699;BME280;4386;51.236;6.742;2023-01-26T00:27:43;102098.81;;;2.28;74.84
8699;BME280;4386;51.236;6.742;2023-01-26T00:29:07;102098.75;;;2.30;74.60
8699;BME280;4386;51.236;6.742;2023-01-26T00:30:30;102096.13;;;2.31;74.89
8699;BME280;4386;51.236;6.742;2023-01-26T00:31:52;102090.84;;;2.33;74.93
8699;BME280;4386;51.236;6.742;2023-01-26T00:33:15;102086.41;;;2.36;74.27
8699;BME280;4386;51.236;6.742;2023-01-26T00:34:39;102077.66;;;2.37;74.87
8699;BME280;4386;51.236;6.742;2023-01-26T00:36:01;102080.25;;;2.39;74.66
8699;BME280;4386;51.236;6.742;2023-01-26T00:37:24;102062.84;;;2.38;74.88
8699;BME280;4386;51.236;6.742;2023-01-26T00:38:45;102066.25;;;2.40;74.64
8699;BME280;4386;51.236;6.742;2023-01-26T00:40:09;102066.25;;;2.41;74.50
8699;BME280;4386;51.236;6.742;2023-01-26T00:41:32;102071.44;;;2.43;74.35
8699;BME280;4386;51.236;6.742;2023-01-26T00:43:12;102070.53;;;2.45;74.45
8699;BME280;4386;51.236;6.742;2023-01-26T00:44:37;102063.56;;;2.44;74.66
8699;BME280;4386;51.236;6.742;2023-01-26T00:45:59;102056.53;;;2.46;74.48
8699;BME280;4386;51.236;6.742;2023-01-26T00:47:21;102050.41;;;2.47;74.09
8699;BME280;4386;51.236;6.742;2023-01-26T00:48:43;102051.22;;;2.49;74.61
8699;BME280;4386;51.236;6.742;2023-01-26T00:50:06;102043.28;;;2.52;74.26
8699;BME280;4386;51.236;6.742;2023-01-26T00:51:29;102044.22;;;2.51;74.36
8699;BME280;4386;51.236;6.742;2023-01-26T00:52:51;102038.97;;;2.51;74.63
8699;BME280;4386;51.236;6.742;2023-01-26T00:54:14;102042.47;;;2.50;74.54
8699;BME280;4386;51.236;6.742;2023-01-26T00:55:36;102045.13;;;2.49;74.73
8699;BME280;4386;51.236;6.742;2023-01-26T00:56:59;102046.03;;;2.48;74.41
8699;BME280;4386;51.236;6.742;2023-01-26T00:58:20;102046.03;;;2.48;74.45
8699;BME280;4386;51.236;6.742;2023-01-26T00:59:44;102048.66;;;2.48;74.20
8699;BME280;4386;51.236;6.742;2023-01-26T01:01:07;102035.59;;;2.46;74.50
8699;BME280;4386;51.236;6.742;2023-01-26T01:02:29;102041.69;;;2.47;74.68
8699;BME280;4386;51.236;6.742;2023-01-26T01:03:51;102040.81;;;2.46;74.07
8699;BME280;4386;51.236;6.742;2023-01-26T01:05:13;102039.06;;;2.48;74.06
8699;BME280;4386;51.236;6.742;2023-01-26T01:06:35;102038.13;;;2.49;74.24
8699;BME280;4386;51.236;6.742;2023-01-26T01:07:57;102042.47;;;2.50;74.05
8699;BME280;4386;51.236;6.742;2023-01-26T01:09:19;102038.97;;;2.51;74.30
8699;BME280;4386;51.236;6.742;2023-01-26T01:10:42;102038.06;;;2.52;74.78
8699;BME280;4386;51.236;6.742;2023-01-26T01:12:05;102043.34;;;2.51;74.06
8699;BME280;4386;51.236;6.742;2023-01-26T01:13:26;102035.53;;;2.49;73.97
8699;BME280;4386;51.236;6.742;2023-01-26T01:14:50;102039.06;;;2.48;74.77
8699;BME280;4386;51.236;6.742;2023-01-26T01:16:14;102034.66;;;2.49;74.63
8699;BME280;4386;51.236;6.742;2023-01-26T01:17:36;102034.72;;;2.47;74.47
8699;BME280;4386;51.236;6.742;2023-01-26T01:18:58;102028.59;;;2.48;74.77
8699;BME280;4386;51.236;6.742;2023-01-26T01:20:20;102039.88;;;2.49;74.61
8699;BME280;4386;51.236;6.742;2023-01-26T01:21:43;102042.50;;;2.49;74.85
8699;BME280;4386;51.236;6.742;2023-01-26T01:23:06;102032.91;;;2.49;74.77
8699;BME280;4386;51.236;6.742;2023-01-26T01:24:27;102034.72;;;2.47;74.23
8699;BME280;4386;51.236;6.742;2023-01-26T01:25:55;102029.47;;;2.47;74.09
8699;BME280;4386;51.236;6.742;2023-01-26T01:27:17;102032.09;;;2.47;74.50
8699;BME280;4386;51.236;6.742;2023-01-26T01:28:40;102019.91;;;2.46;74.84
8699;BME280;4386;51.236;6.742;2023-01-26T01:30:04;102024.25;;;2.47;75.15
8699;BME280;4386;51.236;6.742;2023-01-26T01:31:28;102025.06;;;2.49;75.20
8699;BME280;4386;51.236;6.742;2023-01-26T01:32:51;102024.97;;;2.52;74.48
8699;BME280;4386;51.236;6.742;2023-01-26T01:34:13;102029.25;;;2.56;75.10
8699;BME280;4386;51.236;6.742;2023-01-26T01:35:36;102023.13;;;2.57;74.64
8699;BME280;4386;51.236;6.742;2023-01-26T01:36:59;102033.59;;;2.57;74.96
8699;BME280;4386;51.236;6.742;2023-01-26T01:38:22;102034.47;;;2.58;74.93
8699;BME280;4386;51.236;6.742;2023-01-26T01:39:45;102035.34;;;2.57;74.86
8699;BME280;4386;51.236;6.742;2023-01-26T01:41:11;102022.28;;;2.57;75.24
8699;BME280;4386;51.236;6.742;2023-01-26T01:42:33;102016.16;;;2.56;75.06
8699;BME280;4386;51.236;6.742;2023-01-26T01:44:16;102012.66;;;2.57;75.37
8699;BME280;4386;51.236;6.742;2023-01-26T01:45:42;102014.41;;;2.58;74.79
8699;BME280;4386;51.236;6.742;2023-01-26T01:47:05;102008.31;;;2.58;74.99
8699;BME280;4386;51.236;6.742;2023-01-26T01:48:35;102011.78;;;2.58;75.02
8699;BME280;4386;51.236;6.742;2023-01-26T01:49:58;102011.78;;;2.58;75.27
8699;BME280;4386;51.236;6.742;2023-01-26T01:51:30;102010.88;;;2.59;75.60
8699;BME280;4386;51.236;6.742;2023-01-26T01:52:54;102018.72;;;2.59;75.31
8699;BME280;4386;51.236;6.742;2023-01-26T01:54:20;102018.75;;;2.58;75.36
8699;BME280;4386;51.236;6.742;2023-01-26T01:55:44;102018.88;;;2.53;75.61
8699;BME280;4386;51.236;6.742;2023-01-26T01:57:10;102018.91;;;2.52;74.78
8699;BME280;4386;51.236;6.742;2023-01-26T01:58:40;102016.34;;;2.49;75.64
8699;BME280;4386;51.236;6.742;2023-01-26T02:00:06;102012.97;;;2.45;75.43
8699;BME280;4386;51.236;6.742;2023-01-26T02:01:31;102018.22;;;2.45;75.31
8699;BME280;4386;51.236;6.742;2023-01-26T02:02:55;102015.59;;;2.44;75.40
8699;BME280;4386;51.236;6.742;2023-01-26T02:04:31;102019.09;;;2.44;75.38
8699;BME280;4386;51.236;6.742;2023-01-26T02:05:55;102011.31;;;2.41;75.87
8699;BME280;4386;51.236;6.742;2023-01-26T02:07:18;102007.84;;;2.41;75.15
8699;BME280;4386;51.236;6.742;2023-01-26T02:08:43;102014.75;;;2.43;75.83
8699;BME280;4386;51.236;6.742;2023-01-26T02:10:06;102012.13;;;2.43;75.71
8699;BME280;4386;51.236;6.742;2023-01-26T02:11:42;102011.25;;;2.44;76.03
8699;BME280;4386;51.236;6.742;2023-01-26T02:13:08;102010.34;;;2.45;75.74
8699;BME280;4386;51.236;6.742;2023-01-26T02:14:31;102009.44;;;2.46;76.19
8699;BME280;4386;51.236;6.742;2023-01-26T02:15:54;102000.78;;;2.44;75.93
8699;BME280;4386;51.236;6.742;2023-01-26T02:17:18;102003.41;;;2.44;76.31
8699;BME280;4386;51.236;6.742;2023-01-26T02:18:40;102001.59;;;2.46;75.99
8699;BME280;4386;51.236;6.742;2023-01-26T02:20:04;101995.47;;;2.47;75.89
8699;BME280;4386;51.236;6.742;2023-01-26T02:21:30;101992.81;;;2.49;76.33
8699;BME280;4386;51.236;6.742;2023-01-26T02:22:55;102000.63;;;2.50;76.28
8699;BME280;4386;51.236;6.742;2023-01-26T02:24:25;101998.81;;;2.52;76.25
8699;BME280;4386;51.236;6.742;2023-01-26T02:26:04;101999.59;;;2.56;76.28
8699;BME280;4386;51.236;6.742;2023-01-26T02:27:25;101989.06;;;2.59;76.36
8699;BME280;4386;51.236;6.742;2023-01-26T02:28:48;101997.78;;;2.59;75.83
8699;BME280;4386;51.236;6.742;2023-01-26T02:30:11;101997.78;;;2.59;76.00
8699;BME280;4386;51.236;6.742;2023-01-26T02:31:36;102003.06;;;2.58;76.05
8699;BME280;4386;51.236;6.742;2023-01-26T02:33:00;101996.09;;;2.58;76.32
8699;BME280;4386;51.236;6.742;2023-01-26T02:34:22;101992.63;;;2.56;76.33
8699;BME280;4386;51.236;6.742;2023-01-26T02:35:49;101993.50;;;2.55;76.15
8699;BME280;4386;51.236;6.742;2023-01-26T02:37:13;101986.59;;;2.54;76.67
8699;BME280;4386;51.236;6.742;2023-01-26T02:38:40;101986.59;;;2.54;76.46
8699;BME280;4386;51.236;6.742;2023-01-26T02:40:06;101990.00;;;2.56;76.45
8699;BME280;4386;51.236;6.742;2023-01-26T02:41:33;101988.25;;;2.57;76.29
8699;BME280;4386;51.236;6.742;2023-01-26T02:43:19;101992.59;;;2.58;76.50
8699;BME280;4386;51.236;6.742;2023-01-26T02:44:43;101987.38;;;2.58;76.63
8699;BME280;4386;51.236;6.742;2023-01-26T02:46:04;101983.00;;;2.58;76.16
8699;BME280;4386;51.236;6.742;2023-01-26T02:47:27;101986.50;;;2.57;76.29
8699;BME280;4386;51.236;6.742;2023-01-26T02:48:49;101993.47;;;2.58;76.31
8699;BME280;4386;51.236;6.742;2023-01-26T02:50:29;101984.69;;;2.59;76.53
8699;BME280;4386;51.236;6.742;2023-01-26T02:51:52;101982.09;;;2.59;76.06
8699;BME280;4386;51.236;6.742;2023-01-26T02:53:13;101986.44;;;2.60;76.35
8699;BME280;4386;51.236;6.742;2023-01-26T02:54:36;101978.53;;;2.62;76.57
8699;BME280;4386;51.236;6.742;2023-01-26T02:56:16;101975.97;;;2.60;76.59
8699;BME280;4386;51.236;6.742;2023-01-26T02:57:39;101972.53;;;2.58;76.36
8699;BME280;4386;51.236;6.742;2023-01-26T02:59:01;101976.91;;;2.58;76.38
8699;BME280;4386;51.236;6.742;2023-01-26T03:00:25;101971.63;;;2.59;76.60
8699;BME280;4386;51.236;6.742;2023-01-26T03:01:49;101964.63;;;2.60;76.57
8699;BME280;4386;51.236;6.742;2023-01-26T03:03:13;101962.88;;;2.60;76.97
8699;BME280;4386;51.236;6.742;2023-01-26T03:04:36;101961.13;;;2.61;77.11
8699;BME280;4386;51.236;6.742;2023-01-26T03:05:58;101962.91;;;2.59;76.72
8699;BME280;4386;51.236;6.742;2023-01-26T03:07:21;101965.56;;;2.57;76.74
8699;BME280;4386;51.236;6.742;2023-01-26T03:08:42;101971.69;;;2.56;77.01
8699;BME280;4386;51.236;6.742;2023-01-26T03:10:06;101965.59;;;2.56;77.03
8699;BME280;4386;51.236;6.742;2023-01-26T03:11:29;101973.44;;;2.56;76.80
8699;BME280;4386;51.236;6.742;2023-01-26T03:13:03;101970.91;;;2.53;76.66
8699;BME280;4386;51.236;6.742;2023-01-26T03:14:26;101967.47;;;2.51;76.31
8699;BME280;4386;51.236;6.742;2023-01-26T03:15:47;101962.28;;;2.49;76.94
8699;BME280;4386;51.236;6.742;2023-01-26T03:17:14;101963.13;;;2.50;76.98
8699;BME280;4386;51.236;6.742;2023-01-26T03:18:36;101969.25;;;2.50;76.81
8699;BME280;4386;51.236;6.742;2023-01-26T03:20:16;101967.44;;;2.52;77.38
8699;BME280;4386;51.236;6.742;2023-01-26T03:21:56;101957.75;;;2.56;76.86
8699;BME280;4386;51.236;6.742;2023-01-26T03:23:36;101961.22;;;2.58;77.59
8699;BME280;4386;51.236;6.742;2023-01-26T03:25:16;101955.91;;;2.59;77.17
8699;BME280;4386;51.236;6.742;2023-01-26T03:26:37;101962.81;;;2.62;77.41
8699;BME280;4386;51.236;6.742;2023-01-26T03:27:58;101955.84;;;2.62;77.34
8699;BME280;4386;51.236;6.742;2023-01-26T03:29:01;101954.94;;;2.63;77.38
8699;BME280;4386;51.236;6.742;2023-01-26T03:30:04;101953.22;;;2.62;77.14
8699;BME280;4386;51.236;6.742;2023-01-26T03:31:07;101950.59;;;2.62;77.05
8699;BME280;4386;51.236;6.742;2023-01-26T03:32:08;101960.19;;;2.63;77.76
8699;BME280;4386;51.236;6.742;2023-01-26T03:33:11;101944.47;;;2.63;77.48
8699;BME280;4386;51.236;6.742;2023-01-26T03:34:13;101947.03;;;2.65;77.32
8699;BME280;4386;51.236;6.742;2023-01-26T03:35:16;101952.28;;;2.65;77.38
8699;BME280;4386;51.236;6.742;2023-01-26T03:36:23;101949.63;;;2.67;77.63
8699;BME280;4386;51.236;6.742;2023-01-26T03:37:24;101940.91;;;2.68;77.68
8699;BME280;4386;51.236;6.742;2023-01-26T03:38:27;101943.50;;;2.68;77.78
8699;BME280;4386;51.236;6.742;2023-01-26T03:39:28;101949.56;;;2.70;77.93
8699;BME280;4386;51.236;6.742;2023-01-26T03:40:49;101951.22;;;2.72;77.48
8699;BME280;4386;51.236;6.742;2023-01-26T03:42:09;101956.44;;;2.74;77.28
8699;BME280;4386;51.236;6.742;2023-01-26T03:43:35;101955.59;;;2.72;77.31
8699;BME280;4386;51.236;6.742;2023-01-26T03:44:56;101951.28;;;2.71;77.62
8699;BME280;4386;51.236;6.742;2023-01-26T03:46:17;101949.56;;;2.70;76.88
8699;BME280;4386;51.236;6.742;2023-01-26T03:47:37;101947.00;;;2.68;76.85
8699;BME280;4386;51.236;6.742;2023-01-26T03:48:57;101950.50;;;2.67;77.13
8699;BME280;4386;51.236;6.742;2023-01-26T03:50:18;101947.03;;;2.65;77.29
8699;BME280;4386;51.236;6.742;2023-01-26T03:51:38;101952.28;;;2.65;77.26
8699;BME280;4386;51.236;6.742;2023-01-26T03:52:58;101948.00;;;2.62;77.54
8699;BME280;4386;51.236;6.742;2023-01-26T03:54:19;101948.84;;;2.63;77.06
8699;BME280;4386;51.236;6.742;2023-01-26T03:55:39;101951.53;;;2.61;77.40
8699;BME280;4386;51.236;6.742;2023-01-26T03:56:59;101946.38;;;2.58;76.97
8699;BME280;4386;51.236;6.742;2023-01-26T03:58:02;101948.16;;;2.56;77.22
8699;BME280;4386;51.236;6.742;2023-01-26T03:59:05;101948.22;;;2.53;77.07
8699;BME280;4386;51.236;6.742;2023-01-26T04:00:12;101949.13;;;2.52;76.93
8699;BME280;4386;51.236;6.742;2023-01-26T04:01:25;101949.16;;;2.51;76.70
8699;BME280;4386;51.236;6.742;2023-01-26T04:02:29;101953.53;;;2.50;77.27
8699;BME280;4386;51.236;6.742;2023-01-26T04:03:55;101953.56;;;2.49;77.00
8699;BME280;4386;51.236;6.742;2023-01-26T04:05:15;101957.03;;;2.49;77.08
8699;BME280;4386;51.236;6.742;2023-01-26T04:06:37;101958.78;;;2.50;77.58
8699;BME280;4386;51.236;6.742;2023-01-26T04:08:01;101964.00;;;2.50;77.33
8699;BME280;4386;51.236;6.742;2023-01-26T04:09:22;101960.59;;;2.48;76.63
8699;BME280;4386;51.236;6.742;2023-01-26T04:10:25;101964.09;;;2.47;77.22
8699;BME280;4386;51.236;6.742;2023-01-26T04:11:28;101951.97;;;2.43;77.13
8699;BME280;4386;51.236;6.742;2023-01-26T04:12:29;101953.78;;;2.41;77.27
8699;BME280;4386;51.236;6.742;2023-01-26T04:13:32;101958.16;;;2.39;77.07
8699;BME280;4386;51.236;6.742;2023-01-26T04:14:52;101953.84;;;2.38;77.04
8699;BME280;4386;51.236;6.742;2023-01-26T04:16:13;101955.63;;;2.36;76.87
8699;BME280;4386;51.236;6.742;2023-01-26T04:17:34;101948.63;;;2.38;77.33
8699;BME280;4386;51.236;6.742;2023-01-26T04:18:54;101966.00;;;2.39;77.27
8699;BME280;4386;51.236;6.742;2023-01-26T04:20:15;101964.31;;;2.38;77.64
8699;BME280;4386;51.236;6.742;2023-01-26T04:21:36;101959.16;;;2.35;77.32
8699;BME280;4386;51.236;6.742;2023-01-26T04:22:39;101960.94;;;2.33;77.28
8699;BME280;4386;51.236;6.742;2023-01-26T04:23:45;101958.31;;;2.33;76.89
8699;BME280;4386;51.236;6.742;2023-01-26T04:24:48;101957.44;;;2.34;77.13
8699;BME280;4386;51.236;6.742;2023-01-26T04:25:49;101960.00;;;2.36;77.51
8699;BME280;4386;51.236;6.742;2023-01-26T04:26:55;101966.16;;;2.35;77.52
8699;BME280;4386;51.236;6.742;2023-01-26T04:27:56;101951.31;;;2.35;77.42
8699;BME280;4386;51.236;6.742;2023-01-26T04:29:00;101956.50;;;2.37;77.56
8699;BME280;4386;51.236;6.742;2023-01-26T04:30:03;101948.63;;;2.38;77.80
8699;BME280;4386;51.236;6.742;2023-01-26T04:31:09;101948.53;;;2.41;77.83
8699;BME280;4386;51.236;6.742;2023-01-26T04:32:12;101941.59;;;2.40;77.34
8699;BME280;4386;51.236;6.742;2023-01-26T04:33:15;101945.88;;;2.43;77.91
8699;BME280;4386;51.236;6.742;2023-01-26T04:34:21;101939.75;;;2.44;77.61
8699;BME280;4386;51.236;6.742;2023-01-26T04:35:24;101948.38;;;2.47;77.38
8699;BME280;4386;51.236;6.742;2023-01-26T04:36:25;101941.34;;;2.49;77.81
8699;BME280;4386;51.236;6.742;2023-01-26T04:37:28;101945.66;;;2.52;77.63
8699;BME280;4386;51.236;6.742;2023-01-26T04:38:31;101946.47;;;2.54;77.92
8699;BME280;4386;51.236;6.742;2023-01-26T04:39:42;101945.53;;;2.56;77.45
8699;BME280;4386;51.236;6.742;2023-01-26T04:40:51;101938.53;;;2.58;77.69
8699;BME280;4386;51.236;6.742;2023-01-26T04:41:53;101935.00;;;2.59;77.55
8699;BME280;4386;51.236;6.742;2023-01-26T04:42:55;101941.94;;;2.60;77.91
8699;BME280;4386;51.236;6.742;2023-01-26T04:43:57;101931.44;;;2.62;77.74
8699;BME280;4386;51.236;6.742;2023-01-26T04:45:00;101940.13;;;2.62;77.47
8699;BME280;4386;51.236;6.742;2023-01-26T04:46:04;101939.34;;;2.60;77.84
8699;BME280;4386;51.236;6.742;2023-01-26T04:47:07;101943.69;;;2.60;77.22
8699;BME280;4386;51.236;6.742;2023-01-26T04:48:10;101941.19;;;2.55;77.29
8699;BME280;4386;51.236;6.742;2023-01-26T04:49:13;101937.75;;;2.53;77.07
8699;BME280;4386;51.236;6.742;2023-01-26T04:50:14;101944.81;;;2.51;77.54
8699;BME280;4386;51.236;6.742;2023-01-26T04:51:18;101937.84;;;2.50;77.76
8699;BME280;4386;51.236;6.742;2023-01-26T04:52:20;101932.63;;;2.50;77.23
8699;BME280;4386;51.236;6.742;2023-01-26T04:53:23;101931.75;;;2.50;77.79
8699;BME280;4386;51.236;6.742;2023-01-26T04:54:25;101937.81;;;2.52;77.47
8699;BME280;4386;51.236;6.742;2023-01-26T04:55:28;101936.91;;;2.53;77.35
8699;BME280;4386;51.236;6.742;2023-01-26T04:56:32;101939.50;;;2.54;77.61
8699;BME280;4386;51.236;6.742;2023-01-26T04:57:34;101941.19;;;2.55;78.07
8699;BME280;4386;51.236;6.742;2023-01-26T04:58:36;101937.75;;;2.55;77.77
8699;BME280;4386;51.236;6.742;2023-01-26T04:59:38;101939.50;;;2.54;77.48
8699;BME280;4386;51.236;6.742;2023-01-26T05:00:40;101935.97;;;2.55;77.92
8699;BME280;4386;51.236;6.742;2023-01-26T05:01:53;101936.81;;;2.56;77.95
8699;BME280;4386;51.236;6.742;2023-01-26T05:02:55;101940.31;;;2.56;77.45
8699;BME280;4386;51.236;6.742;2023-01-26T05:03:59;101945.59;;;2.55;77.92
8699;BME280;4386;51.236;6.742;2023-01-26T05:05:01;101939.56;;;2.51;77.49
8699;BME280;4386;51.236;6.742;2023-01-26T05:06:04;101937.03;;;2.48;77.72
8699;BME280;4386;51.236;6.742;2023-01-26T05:07:06;101935.25;;;2.49;77.80
8699;BME280;4386;51.236;6.742;2023-01-26T05:08:09;101943.16;;;2.47;77.59
8699;BME280;4386;51.236;6.742;2023-01-26T05:09:10;101935.34;;;2.46;77.72
8699;BME280;4386;51.236;6.742;2023-01-26T05:10:13;101934.53;;;2.44;77.55
8699;BME280;4386;51.236;6.742;2023-01-26T05:11:16;101933.72;;;2.42;78.03
8699;BME280;4386;51.236;6.742;2023-01-26T05:12:19;101936.34;;;2.40;78.09
8699;BME280;4386;51.236;6.742;2023-01-26T05:13:35;101934.63;;;2.39;77.43
8699;BME280;4386;51.236;6.742;2023-01-26T05:14:48;101938.16;;;2.38;77.70
8699;BME280;4386;51.236;6.742;2023-01-26T05:15:51;101938.19;;;2.37;77.63
8699;BME280;4386;51.236;6.742;2023-01-26T05:16:52;101941.66;;;2.37;78.13
8699;BME280;4386;51.236;6.742;2023-01-26T05:17:56;101946.91;;;2.37;77.86
8699;BME280;4386;51.236;6.742;2023-01-26T05:18:59;101945.16;;;2.36;78.20
8699;BME280;4386;51.236;6.742;2023-01-26T05:20:02;101939.94;;;2.36;78.05
8699;BME280;4386;51.236;6.742;2023-01-26T05:21:09;101939.91;;;2.38;78.59
8699;BME280;4386;51.236;6.742;2023-01-26T05:22:12;101945.09;;;2.39;78.09
8699;BME280;4386;51.236;6.742;2023-01-26T05:23:13;101934.53;;;2.42;78.38
8699;BME280;4386;51.236;6.742;2023-01-26T05:24:16;101938.88;;;2.43;78.30
8699;BME280;4386;51.236;6.742;2023-01-26T05:25:26;101937.06;;;2.47;78.30
8699;BME280;4386;51.236;6.742;2023-01-26T05:26:29;101941.34;;;2.49;78.53
8699;BME280;4386;51.236;6.742;2023-01-26T05:27:30;101933.50;;;2.49;78.26
8699;BME280;4386;51.236;6.742;2023-01-26T05:28:33;101937.84;;;2.50;78.10
8699;BME280;4386;51.236;6.742;2023-01-26T05:29:36;101945.72;;;2.49;78.25
8699;BME280;4386;51.236;6.742;2023-01-26T05:30:39;101945.72;;;2.49;78.37
8699;BME280;4386;51.236;6.742;2023-01-26T05:31:41;101951.88;;;2.48;78.01
8699;BME280;4386;51.236;6.742;2023-01-26T05:32:44;101951.03;;;2.46;78.60
8699;BME280;4386;51.236;6.742;2023-01-26T05:33:45;101948.41;;;2.46;78.15
8699;BME280;4386;51.236;6.742;2023-01-26T05:34:49;101941.44;;;2.46;78.75
8699;BME280;4386;51.236;6.742;2023-01-26T05:35:52;101944.03;;;2.46;78.01
8699;BME280;4386;51.236;6.742;2023-01-26T05:36:54;101943.19;;;2.46;78.38
8699;BME280;4386;51.236;6.742;2023-01-26T05:37:56;101942.28;;;2.47;78.43
8699;BME280;4386;51.236;6.742;2023-01-26T05:38:59;101944.97;;;2.45;78.22
8699;BME280;4386;51.236;6.742;2023-01-26T05:40:00;101938.00;;;2.44;78.57
8699;BME280;4386;51.236;6.742;2023-01-26T05:41:14;101944.97;;;2.45;78.58
8699;BME280;4386;51.236;6.742;2023-01-26T05:42:15;101953.66;;;2.46;79.11
8699;BME280;4386;51.236;6.742;2023-01-26T05:43:20;101942.34;;;2.45;79.14
8699;BME280;4386;51.236;6.742;2023-01-26T05:44:22;101949.28;;;2.46;78.87
8699;BME280;4386;51.236;6.742;2023-01-26T05:45:27;101940.53;;;2.47;78.92
8699;BME280;4386;51.236;6.742;2023-01-26T05:46:29;101944.88;;;2.48;78.84
8699;BME280;4386;51.236;6.742;2023-01-26T05:47:32;101944.03;;;2.48;79.32
8699;BME280;4386;51.236;6.742;2023-01-26T05:48:36;101947.44;;;2.50;78.71
8699;BME280;4386;51.236;6.742;2023-01-26T05:49:38;101955.28;;;2.50;78.80
8699;BME280;4386;51.236;6.742;2023-01-26T05:50:44;101955.28;;;2.50;78.99
8699;BME280;4386;51.236;6.742;2023-01-26T05:51:52;101949.25;;;2.48;78.48
8699;BME280;4386;51.236;6.742;2023-01-26T05:52:54;101958.84;;;2.47;79.10
8699;BME280;4386;51.236;6.742;2023-01-26T05:53:57;101955.44;;;2.45;79.22
8699;BME280;4386;51.236;6.742;2023-01-26T05:54:59;101955.44;;;2.45;78.70
8699;BME280;4386;51.236;6.742;2023-01-26T05:56:01;101955.44;;;2.45;78.98
8699;BME280;4386;51.236;6.742;2023-01-26T05:57:03;101954.50;;;2.46;78.70
8699;BME280;4386;51.236;6.742;2023-01-26T05:58:05;101945.84;;;2.44;78.89
8699;BME280;4386;51.236;6.742;2023-01-26T05:59:12;101956.25;;;2.46;78.87
8699;BME280;4386;51.236;6.742;2023-01-26T06:00:15;101954.59;;;2.43;78.89
8699;BME280;4386;51.236;6.742;2023-01-26T06:01:18;101951.97;;;2.43;79.40
8699;BME280;4386;51.236;6.742;2023-01-26T06:02:21;101951.97;;;2.43;79.21
8699;BME280;4386;51.236;6.742;2023-01-26T06:03:23;101958.94;;;2.44;79.36
8699;BME280;4386;51.236;6.742;2023-01-26T06:04:26;101965.94;;;2.42;79.59
8699;BME280;4386;51.236;6.742;2023-01-26T06:05:37;101968.53;;;2.44;79.72
8699;BME280;4386;51.236;6.742;2023-01-26T06:06:41;101962.44;;;2.43;79.33
8699;BME280;4386;51.236;6.742;2023-01-26T06:07:43;101956.34;;;2.43;79.38
8699;BME280;4386;51.236;6.742;2023-01-26T06:08:45;101968.56;;;2.42;79.14
8699;BME280;4386;51.236;6.742;2023-01-26T06:09:47;101964.25;;;2.41;79.33
8699;BME280;4386;51.236;6.742;2023-01-26T06:10:49;101966.84;;;2.41;79.34
8699;BME280;4386;51.236;6.742;2023-01-26T06:11:51;101965.13;;;2.40;79.37
8699;BME280;4386;51.236;6.742;2023-01-26T06:12:54;101971.25;;;2.39;79.45
8699;BME280;4386;51.236;6.742;2023-01-26T06:13:58;101966.94;;;2.37;79.40
8699;BME280;4386;51.236;6.742;2023-01-26T06:15:00;101966.09;;;2.36;79.27
8699;BME280;4386;51.236;6.742;2023-01-26T06:16:03;101961.78;;;2.35;79.17
8699;BME280;4386;51.236;6.742;2023-01-26T06:17:05;101960.06;;;2.33;79.16
8699;BME280;4386;51.236;6.742;2023-01-26T06:18:17;101961.78;;;2.34;79.87
8699;BME280;4386;51.236;6.742;2023-01-26T06:19:21;101966.16;;;2.33;79.30
8699;BME280;4386;51.236;6.742;2023-01-26T06:20:22;101964.38;;;2.35;79.80
8699;BME280;4386;51.236;6.742;2023-01-26T06:21:25;101966.09;;;2.36;79.70
8699;BME280;4386;51.236;6.742;2023-01-26T06:22:28;101965.19;;;2.37;79.64
8699;BME280;4386;51.236;6.742;2023-01-26T06:23:30;101958.22;;;2.38;79.82
8699;BME280;4386;51.236;6.742;2023-01-26T06:24:33;101966.88;;;2.40;79.43
8699;BME280;4386;51.236;6.742;2023-01-26T06:25:35;101965.13;;;2.40;79.60
8699;BME280;4386;51.236;6.742;2023-01-26T06:26:38;101964.25;;;2.41;79.49
8699;BME280;4386;51.236;6.742;2023-01-26T06:27:40;101959.00;;;2.41;79.74
8699;BME280;4386;51.236;6.742;2023-01-26T06:28:43;101952.03;;;2.42;79.65
8699;BME280;4386;51.236;6.742;2023-01-26T06:29:45;101949.41;;;2.42;79.38
8699;BME280;4386;51.236;6.742;2023-01-26T06:30:47;101944.13;;;2.43;79.81
8699;BME280;4386;51.236;6.742;2023-01-26T06:31:49;101949.31;;;2.45;79.31
8699;BME280;4386;51.236;6.742;2023-01-26T06:32:52;101950.22;;;2.44;80.03
8699;BME280;4386;51.236;6.742;2023-01-26T06:33:54;101951.97;;;2.43;80.08
8699;BME280;4386;51.236;6.742;2023-01-26T06:34:56;101955.47;;;2.42;79.35
8699;BME280;4386;51.236;6.742;2023-01-26T06:36:00;101963.31;;;2.42;79.58
8699;BME280;4386;51.236;6.742;2023-01-26T06:37:03;101959.91;;;2.40;79.43
8699;BME280;4386;51.236;6.742;2023-01-26T06:38:06;101959.03;;;2.40;79.92
8699;BME280;4386;51.236;6.742;2023-01-26T06:39:10;101960.78;;;2.39;79.59
8699;BME280;4386;51.236;6.742;2023-01-26T06:40:22;101959.09;;;2.38;79.89
8699;BME280;4386;51.236;6.742;2023-01-26T06:41:25;101962.59;;;2.37;79.49
8699;BME280;4386;51.236;6.742;2023-01-26T06:42:26;101959.97;;;2.37;79.49
8699;BME280;4386;51.236;6.742;2023-01-26T06:43:29;101957.34;;;2.37;79.97
8699;BME280;4386;51.236;6.742;2023-01-26T06:44:30;101957.34;;;2.37;79.48